sensor_id;sensor_type;location;lat;lon;timestamp;P1;durP1;ratioP1;P2;durP2;ratioP2
76903;SDS011;65865;51.698;-0.292;2023-03-05T00:00:51;1.67;;;0.45;;
76903;SDS011;65865;51.698;-0.292;2023-03-05T00:03:17;1.20;;;0.40;;
76903;SDS011;65865;51.698;-0.292;2023-03-05T00:05:43;1.85;;;0.75;;
76903;SDS011;65865;51.698;-0.292;2023-03-05T00:08:09;1.52;;;0.50;;
76903;SDS011;65865;51.698;-0.292;2023-03-05T00:10:35;1.50;;;0.63;;
76903;SDS011;65865;51.698;-0.292;2023-03-05T00:13:02;2.00;;;0.60;;
76903;SDS011;65865;51.698;-0.292;2023-03-05T00:15:30;1.77;;;1.05;;
76903;SDS011;65865;51.698;-0.292;2023-03-05T00:18:00;1.08;;;0.47;;
76903;SDS011;65865;51.698;-0.292;2023-03-05T00:20:26;1.90;;;0.50;;
76903;SDS011;65865;51.698;-0.292;2023-03-05T00:22:52;1.73;;;0.63;;
76903;SDS011;65865;51.698;-0.292;2023-03-05T00:25:18;1.67;;;0.52;;
76903;SDS011;65865;51.698;-0.292;2023-03-05T00:27:44;1.23;;;0.50;;
76903;SDS011;65865;51.698;-0.292;2023-03-05T00:30:10;1.80;;;0.60;;
76903;SDS011;65865;51.698;-0.292;2023-03-05T00:32:39;1.40;;;0.60;;
76903;SDS011;65865;51.698;-0.292;2023-03-05T00:35:07;1.08;;;0.47;;
76903;SDS011;65865;51.698;-0.292;2023-03-05T00:37:35;2.75;;;0.52;;
76903;SDS011;65865;51.698;-0.292;2023-03-05T00:40:02;2.55;;;0.60;;
76903;SDS011;65865;51.698;-0.292;2023-03-05T00:42:29;1.52;;;0.30;;
76903;SDS011;65865;51.698;-0.292;2023-03-05T00:45:11;1.73;;;0.80;;
76903;SDS011;65865;51.698;-0.292;2023-03-05T00:47:38;1.38;;;0.63;;
76903;SDS011;65865;51.698;-0.292;2023-03-05T00:50:05;1.52;;;0.52;;
76903;SDS011;65865;51.698;-0.292;2023-03-05T00:52:33;1.30;;;0.43;;
76903;SDS011;65865;51.698;-0.292;2023-03-05T00:55:00;1.75;;;0.45;;
76903;SDS011;65865;51.698;-0.292;2023-03-05T00:57:26;1.98;;;0.52;;
76903;SDS011;65865;51.698;-0.292;2023-03-05T00:59:52;1.60;;;0.63;;
76903;SDS011;65865;51.698;-0.292;2023-03-05T01:02:18;0.60;;;0.32;;
76903;SDS011;65865;51.698;-0.292;2023-03-05T01:04:44;1.02;;;0.43;;
76903;SDS011;65865;51.698;-0.292;2023-03-05T01:07:11;1.90;;;0.70;;
76903;SDS011;65865;51.698;-0.292;2023-03-05T01:09:37;1.02;;;0.40;;
76903;SDS011;65865;51.698;-0.292;2023-03-05T01:12:03;1.48;;;0.52;;
76903;SDS011;65865;51.698;-0.292;2023-03-05T01:14:29;1.15;;;0.45;;
76903;SDS011;65865;51.698;-0.292;2023-03-05T01:16:56;2.25;;;0.65;;
76903;SDS011;65865;51.698;-0.292;2023-03-05T01:19:22;0.70;;;0.30;;
76903;SDS011;65865;51.698;-0.292;2023-03-05T01:21:48;2.20;;;0.50;;
76903;SDS011;65865;51.698;-0.292;2023-03-05T01:24:14;1.05;;;0.32;;
76903;SDS011;65865;51.698;-0.292;2023-03-05T01:26:40;0.95;;;0.40;;
76903;SDS011;65865;51.698;-0.292;2023-03-05T01:29:06;1.40;;;0.47;;
76903;SDS011;65865;51.698;-0.292;2023-03-05T01:31:32;1.38;;;0.63;;
76903;SDS011;65865;51.698;-0.292;2023-03-05T01:33:58;1.40;;;0.52;;
76903;SDS011;65865;51.698;-0.292;2023-03-05T01:36:24;1.50;;;0.63;;
76903;SDS011;65865;51.698;-0.292;2023-03-05T01:38:50;1.27;;;0.55;;
76903;SDS011;65865;51.698;-0.292;2023-03-05T01:41:18;2.00;;;0.80;;
76903;SDS011;65865;51.698;-0.292;2023-03-05T01:43:51;1.08;;;0.55;;
76903;SDS011;65865;51.698;-0.292;2023-03-05T01:46:25;1.25;;;0.63;;
76903;SDS011;65865;51.698;-0.292;2023-03-05T01:49:03;1.67;;;0.43;;
76903;SDS011;65865;51.698;-0.292;2023-03-05T01:51:32;2.00;;;0.73;;
76903;SDS011;65865;51.698;-0.292;2023-03-05T01:54:00;1.27;;;0.43;;
76903;SDS011;65865;51.698;-0.292;2023-03-05T01:56:27;0.88;;;0.60;;
76903;SDS011;65865;51.698;-0.292;2023-03-05T01:58:54;0.77;;;0.40;;
76903;SDS011;65865;51.698;-0.292;2023-03-05T02:01:27;1.55;;;0.52;;
76903;SDS011;65865;51.698;-0.292;2023-03-05T02:03:53;1.13;;;0.45;;
76903;SDS011;65865;51.698;-0.292;2023-03-05T02:06:19;1.80;;;0.63;;
76903;SDS011;65865;51.698;-0.292;2023-03-05T02:08:45;1.70;;;0.43;;
76903;SDS011;65865;51.698;-0.292;2023-03-05T02:11:12;1.40;;;0.43;;
76903;SDS011;65865;51.698;-0.292;2023-03-05T02:13:38;1.02;;;0.40;;
76903;SDS011;65865;51.698;-0.292;2023-03-05T02:16:05;2.40;;;0.60;;
76903;SDS011;65865;51.698;-0.292;2023-03-05T02:18:31;1.13;;;0.65;;
76903;SDS011;65865;51.698;-0.292;2023-03-05T02:23:38;1.40;;;0.52;;
76903;SDS011;65865;51.698;-0.292;2023-03-05T02:26:05;1.58;;;0.50;;
76903;SDS011;65865;51.698;-0.292;2023-03-05T02:28:48;0.85;;;0.43;;
76903;SDS011;65865;51.698;-0.292;2023-03-05T02:31:17;1.80;;;0.40;;
76903;SDS011;65865;51.698;-0.292;2023-03-05T02:33:43;1.58;;;0.57;;
76903;SDS011;65865;51.698;-0.292;2023-03-05T02:36:09;1.15;;;0.40;;
76903;SDS011;65865;51.698;-0.292;2023-03-05T02:38:36;1.20;;;0.43;;
76903;SDS011;65865;51.698;-0.292;2023-03-05T02:41:02;1.67;;;0.52;;
76903;SDS011;65865;51.698;-0.292;2023-03-05T02:43:28;0.93;;;0.38;;
76903;SDS011;65865;51.698;-0.292;2023-03-05T02:45:54;0.90;;;0.68;;
76903;SDS011;65865;51.698;-0.292;2023-03-05T02:48:20;1.23;;;0.73;;
76903;SDS011;65865;51.698;-0.292;2023-03-05T02:50:46;0.82;;;0.40;;
76903;SDS011;65865;51.698;-0.292;2023-03-05T02:53:12;1.33;;;0.63;;
76903;SDS011;65865;51.698;-0.292;2023-03-05T02:55:38;1.13;;;0.55;;
76903;SDS011;65865;51.698;-0.292;2023-03-05T02:58:04;1.75;;;0.50;;
76903;SDS011;65865;51.698;-0.292;2023-03-05T03:00:30;1.27;;;0.40;;
76903;SDS011;65865;51.698;-0.292;2023-03-05T03:02:56;1.42;;;0.63;;
76903;SDS011;65865;51.698;-0.292;2023-03-05T03:05:22;1.15;;;0.50;;
76903;SDS011;65865;51.698;-0.292;2023-03-05T03:07:49;1.25;;;0.50;;
76903;SDS011;65865;51.698;-0.292;2023-03-05T03:10:15;1.95;;;0.63;;
76903;SDS011;65865;51.698;-0.292;2023-03-05T03:12:43;1.30;;;0.52;;
76903;SDS011;65865;51.698;-0.292;2023-03-05T03:15:10;1.75;;;0.60;;
76903;SDS011;65865;51.698;-0.292;2023-03-05T03:17:36;1.30;;;0.43;;
76903;SDS011;65865;51.698;-0.292;2023-03-05T03:20:03;0.98;;;0.50;;
76903;SDS011;65865;51.698;-0.292;2023-03-05T03:22:29;1.52;;;0.45;;
76903;SDS011;65865;51.698;-0.292;2023-03-05T03:24:55;1.48;;;0.50;;
76903;SDS011;65865;51.698;-0.292;2023-03-05T03:27:22;1.52;;;0.47;;
76903;SDS011;65865;51.698;-0.292;2023-03-05T03:29:48;2.15;;;0.63;;
76903;SDS011;65865;51.698;-0.292;2023-03-05T03:32:14;1.63;;;0.43;;
76903;SDS011;65865;51.698;-0.292;2023-03-05T03:34:40;1.20;;;0.40;;
76903;SDS011;65865;51.698;-0.292;2023-03-05T03:37:06;2.33;;;0.60;;
76903;SDS011;65865;51.698;-0.292;2023-03-05T03:39:33;1.83;;;0.60;;
76903;SDS011;65865;51.698;-0.292;2023-03-05T03:41:59;1.42;;;0.50;;
76903;SDS011;65865;51.698;-0.292;2023-03-05T03:44:25;1.40;;;0.60;;
76903;SDS011;65865;51.698;-0.292;2023-03-05T03:46:51;1.40;;;0.52;;
76903;SDS011;65865;51.698;-0.292;2023-03-05T03:49:27;0.93;;;0.63;;
76903;SDS011;65865;51.698;-0.292;2023-03-05T03:51:56;1.45;;;0.63;;
76903;SDS011;65865;51.698;-0.292;2023-03-05T03:54:22;1.08;;;0.50;;
76903;SDS011;65865;51.698;-0.292;2023-03-05T03:56:48;1.48;;;0.55;;
76903;SDS011;65865;51.698;-0.292;2023-03-05T03:59:14;2.13;;;0.60;;
76903;SDS011;65865;51.698;-0.292;2023-03-05T04:01:41;1.27;;;0.75;;
76903;SDS011;65865;51.698;-0.292;2023-03-05T04:04:08;2.17;;;0.63;;
76903;SDS011;65865;51.698;-0.292;2023-03-05T04:06:35;1.73;;;0.43;;
76903;SDS011;65865;51.698;-0.292;2023-03-05T04:09:02;1.42;;;0.65;;
76903;SDS011;65865;51.698;-0.292;2023-03-05T04:11:28;2.22;;;0.65;;
76903;SDS011;65865;51.698;-0.292;2023-03-05T04:13:54;3.53;;;1.33;;
76903;SDS011;65865;51.698;-0.292;2023-03-05T04:16:21;6.13;;;0.70;;
76903;SDS011;65865;51.698;-0.292;2023-03-05T04:18:47;5.05;;;0.85;;
76903;SDS011;65865;51.698;-0.292;2023-03-05T04:21:13;2.58;;;0.60;;
76903;SDS011;65865;51.698;-0.292;2023-03-05T04:23:39;4.05;;;0.50;;
76903;SDS011;65865;51.698;-0.292;2023-03-05T04:26:05;1.90;;;0.73;;
76903;SDS011;65865;51.698;-0.292;2023-03-05T04:28:31;1.77;;;0.70;;
76903;SDS011;65865;51.698;-0.292;2023-03-05T04:30:59;3.72;;;0.82;;
76903;SDS011;65865;51.698;-0.292;2023-03-05T04:33:25;1.92;;;0.90;;
76903;SDS011;65865;51.698;-0.292;2023-03-05T04:35:51;3.35;;;1.10;;
76903;SDS011;65865;51.698;-0.292;2023-03-05T04:38:17;2.88;;;0.50;;
76903;SDS011;65865;51.698;-0.292;2023-03-05T04:40:43;1.80;;;0.82;;
76903;SDS011;65865;51.698;-0.292;2023-03-05T04:43:10;1.77;;;0.80;;
76903;SDS011;65865;51.698;-0.292;2023-03-05T04:45:40;3.38;;;0.88;;
76903;SDS011;65865;51.698;-0.292;2023-03-05T04:48:07;2.03;;;0.80;;
76903;SDS011;65865;51.698;-0.292;2023-03-05T04:50:33;2.13;;;1.00;;
76903;SDS011;65865;51.698;-0.292;2023-03-05T04:52:59;2.55;;;0.80;;
76903;SDS011;65865;51.698;-0.292;2023-03-05T04:55:30;1.98;;;0.85;;
76903;SDS011;65865;51.698;-0.292;2023-03-05T04:57:57;2.38;;;0.60;;
76903;SDS011;65865;51.698;-0.292;2023-03-05T05:00:24;2.95;;;0.90;;
76903;SDS011;65865;51.698;-0.292;2023-03-05T05:02:51;1.95;;;0.85;;
76903;SDS011;65865;51.698;-0.292;2023-03-05T05:05:20;3.47;;;0.88;;
76903;SDS011;65865;51.698;-0.292;2023-03-05T05:07:47;2.33;;;0.82;;
76903;SDS011;65865;51.698;-0.292;2023-03-05T05:10:14;1.70;;;0.70;;
76903;SDS011;65865;51.698;-0.292;2023-03-05T05:12:40;1.70;;;0.82;;
76903;SDS011;65865;51.698;-0.292;2023-03-05T05:15:06;2.80;;;0.93;;
76903;SDS011;65865;51.698;-0.292;2023-03-05T05:17:33;1.92;;;0.73;;
76903;SDS011;65865;51.698;-0.292;2023-03-05T05:19:59;2.78;;;0.93;;
76903;SDS011;65865;51.698;-0.292;2023-03-05T05:22:27;2.38;;;1.05;;
76903;SDS011;65865;51.698;-0.292;2023-03-05T05:24:54;7.20;;;2.47;;
76903;SDS011;65865;51.698;-0.292;2023-03-05T05:27:20;5.45;;;2.10;;
76903;SDS011;65865;51.698;-0.292;2023-03-05T05:29:46;3.80;;;1.58;;
76903;SDS011;65865;51.698;-0.292;2023-03-05T05:32:14;3.65;;;1.52;;
76903;SDS011;65865;51.698;-0.292;2023-03-05T05:34:40;3.63;;;1.60;;
76903;SDS011;65865;51.698;-0.292;2023-03-05T05:37:06;3.78;;;1.58;;
76903;SDS011;65865;51.698;-0.292;2023-03-05T05:39:33;2.50;;;1.25;;
76903;SDS011;65865;51.698;-0.292;2023-03-05T05:41:59;2.97;;;1.45;;
76903;SDS011;65865;51.698;-0.292;2023-03-05T05:44:25;3.10;;;1.23;;
76903;SDS011;65865;51.698;-0.292;2023-03-05T05:46:51;5.22;;;1.52;;
76903;SDS011;65865;51.698;-0.292;2023-03-05T05:49:17;3.85;;;1.00;;
76903;SDS011;65865;51.698;-0.292;2023-03-05T05:51:43;3.45;;;1.48;;
76903;SDS011;65865;51.698;-0.292;2023-03-05T05:54:13;3.65;;;1.33;;
76903;SDS011;65865;51.698;-0.292;2023-03-05T05:56:40;2.78;;;1.13;;
76903;SDS011;65865;51.698;-0.292;2023-03-05T05:59:07;2.67;;;1.10;;
76903;SDS011;65865;51.698;-0.292;2023-03-05T06:01:33;3.08;;;0.95;;
76903;SDS011;65865;51.698;-0.292;2023-03-05T06:04:01;3.10;;;0.93;;
76903;SDS011;65865;51.698;-0.292;2023-03-05T06:06:27;2.25;;;0.95;;
76903;SDS011;65865;51.698;-0.292;2023-03-05T06:08:53;2.70;;;0.95;;
76903;SDS011;65865;51.698;-0.292;2023-03-05T06:11:20;3.17;;;0.93;;
76903;SDS011;65865;51.698;-0.292;2023-03-05T06:13:46;2.83;;;0.98;;
76903;SDS011;65865;51.698;-0.292;2023-03-05T06:16:14;2.47;;;0.80;;
76903;SDS011;65865;51.698;-0.292;2023-03-05T06:18:41;2.50;;;0.93;;
76903;SDS011;65865;51.698;-0.292;2023-03-05T06:21:08;2.30;;;0.70;;
76903;SDS011;65865;51.698;-0.292;2023-03-05T06:23:35;2.00;;;1.00;;
76903;SDS011;65865;51.698;-0.292;2023-03-05T06:26:02;1.70;;;0.70;;
76903;SDS011;65865;51.698;-0.292;2023-03-05T06:28:28;2.17;;;1.05;;
76903;SDS011;65865;51.698;-0.292;2023-03-05T06:31:08;2.58;;;0.60;;
76903;SDS011;65865;51.698;-0.292;2023-03-05T06:33:34;1.33;;;0.60;;
76903;SDS011;65865;51.698;-0.292;2023-03-05T06:36:04;2.20;;;1.17;;
76903;SDS011;65865;51.698;-0.292;2023-03-05T06:38:30;1.92;;;0.82;;
76903;SDS011;65865;51.698;-0.292;2023-03-05T06:40:59;1.90;;;0.63;;
76903;SDS011;65865;51.698;-0.292;2023-03-05T06:43:25;2.42;;;1.20;;
76903;SDS011;65865;51.698;-0.292;2023-03-05T06:46:02;2.33;;;0.77;;
76903;SDS011;65865;51.698;-0.292;2023-03-05T06:48:28;2.28;;;0.82;;
76903;SDS011;65865;51.698;-0.292;2023-03-05T06:50:54;2.05;;;0.65;;
76903;SDS011;65865;51.698;-0.292;2023-03-05T06:53:20;2.25;;;0.70;;
76903;SDS011;65865;51.698;-0.292;2023-03-05T06:55:48;1.65;;;0.73;;
76903;SDS011;65865;51.698;-0.292;2023-03-05T06:58:14;1.63;;;0.55;;
76903;SDS011;65865;51.698;-0.292;2023-03-05T07:00:40;1.88;;;0.63;;
76903;SDS011;65865;51.698;-0.292;2023-03-05T07:03:06;1.73;;;0.85;;
76903;SDS011;65865;51.698;-0.292;2023-03-05T07:05:32;1.92;;;0.82;;
76903;SDS011;65865;51.698;-0.292;2023-03-05T07:07:58;1.90;;;0.73;;
76903;SDS011;65865;51.698;-0.292;2023-03-05T07:10:24;1.40;;;0.60;;
76903;SDS011;65865;51.698;-0.292;2023-03-05T07:12:50;1.73;;;0.60;;
76903;SDS011;65865;51.698;-0.292;2023-03-05T07:15:16;1.63;;;0.65;;
76903;SDS011;65865;51.698;-0.292;2023-03-05T07:17:42;1.98;;;0.75;;
76903;SDS011;65865;51.698;-0.292;2023-03-05T07:20:08;1.77;;;0.60;;
76903;SDS011;65865;51.698;-0.292;2023-03-05T07:22:35;1.55;;;0.63;;
76903;SDS011;65865;51.698;-0.292;2023-03-05T07:25:02;1.15;;;0.40;;
76903;SDS011;65865;51.698;-0.292;2023-03-05T07:27:28;1.70;;;0.80;;
76903;SDS011;65865;51.698;-0.292;2023-03-05T07:29:54;2.58;;;0.55;;
76903;SDS011;65865;51.698;-0.292;2023-03-05T07:32:20;2.00;;;0.88;;
76903;SDS011;65865;51.698;-0.292;2023-03-05T07:34:46;2.13;;;0.80;;
76903;SDS011;65865;51.698;-0.292;2023-03-05T07:37:12;2.33;;;0.73;;
76903;SDS011;65865;51.698;-0.292;2023-03-05T07:39:38;2.72;;;0.60;;
76903;SDS011;65865;51.698;-0.292;2023-03-05T07:42:04;1.55;;;0.50;;
76903;SDS011;65865;51.698;-0.292;2023-03-05T07:44:30;2.38;;;0.50;;
76903;SDS011;65865;51.698;-0.292;2023-03-05T07:46:56;1.38;;;0.50;;
76903;SDS011;65865;51.698;-0.292;2023-03-05T07:49:22;1.23;;;0.50;;
76903;SDS011;65865;51.698;-0.292;2023-03-05T07:51:48;0.98;;;0.43;;
76903;SDS011;65865;51.698;-0.292;2023-03-05T07:54:14;1.70;;;0.40;;
76903;SDS011;65865;51.698;-0.292;2023-03-05T07:56:40;1.85;;;0.50;;
76903;SDS011;65865;51.698;-0.292;2023-03-05T07:59:07;1.52;;;0.55;;
76903;SDS011;65865;51.698;-0.292;2023-03-05T08:01:35;2.10;;;0.63;;
76903;SDS011;65865;51.698;-0.292;2023-03-05T08:04:01;1.58;;;0.63;;
76903;SDS011;65865;51.698;-0.292;2023-03-05T08:06:28;1.80;;;0.52;;
76903;SDS011;65865;51.698;-0.292;2023-03-05T08:08:54;1.00;;;0.30;;
76903;SDS011;65865;51.698;-0.292;2023-03-05T08:11:20;1.55;;;0.70;;
76903;SDS011;65865;51.698;-0.292;2023-03-05T08:13:46;1.15;;;0.32;;
76903;SDS011;65865;51.698;-0.292;2023-03-05T08:16:14;1.27;;;0.47;;
76903;SDS011;65865;51.698;-0.292;2023-03-05T08:18:40;2.28;;;0.60;;
76903;SDS011;65865;51.698;-0.292;2023-03-05T08:21:13;1.50;;;0.50;;
76903;SDS011;65865;51.698;-0.292;2023-03-05T08:23:40;1.38;;;0.50;;
76903;SDS011;65865;51.698;-0.292;2023-03-05T08:26:16;1.70;;;0.43;;
76903;SDS011;65865;51.698;-0.292;2023-03-05T08:28:42;1.42;;;0.43;;
76903;SDS011;65865;51.698;-0.292;2023-03-05T08:31:11;1.42;;;0.60;;
76903;SDS011;65865;51.698;-0.292;2023-03-05T08:33:38;1.10;;;0.60;;
76903;SDS011;65865;51.698;-0.292;2023-03-05T08:36:05;1.33;;;0.40;;
76903;SDS011;65865;51.698;-0.292;2023-03-05T08:38:32;1.25;;;0.50;;
76903;SDS011;65865;51.698;-0.292;2023-03-05T08:40:58;1.38;;;0.50;;
76903;SDS011;65865;51.698;-0.292;2023-03-05T08:43:24;2.58;;;0.50;;
76903;SDS011;65865;51.698;-0.292;2023-03-05T08:45:50;1.27;;;0.40;;
76903;SDS011;65865;51.698;-0.292;2023-03-05T08:48:17;1.73;;;0.95;;
76903;SDS011;65865;51.698;-0.292;2023-03-05T08:50:43;2.00;;;0.52;;
76903;SDS011;65865;51.698;-0.292;2023-03-05T08:53:10;1.02;;;0.40;;
76903;SDS011;65865;51.698;-0.292;2023-03-05T08:55:36;1.00;;;0.50;;
76903;SDS011;65865;51.698;-0.292;2023-03-05T08:58:02;1.40;;;0.40;;
76903;SDS011;65865;51.698;-0.292;2023-03-05T09:00:28;2.47;;;0.50;;
76903;SDS011;65865;51.698;-0.292;2023-03-05T09:02:54;1.58;;;0.50;;
76903;SDS011;65865;51.698;-0.292;2023-03-05T09:05:20;1.00;;;0.45;;
76903;SDS011;65865;51.698;-0.292;2023-03-05T09:07:46;1.10;;;0.40;;
76903;SDS011;65865;51.698;-0.292;2023-03-05T09:10:12;0.90;;;0.35;;
76903;SDS011;65865;51.698;-0.292;2023-03-05T09:12:42;2.03;;;0.50;;
76903;SDS011;65865;51.698;-0.292;2023-03-05T09:15:08;1.48;;;0.52;;
76903;SDS011;65865;51.698;-0.292;2023-03-05T09:17:35;1.50;;;0.52;;
76903;SDS011;65865;51.698;-0.292;2023-03-05T09:20:02;2.03;;;0.63;;
76903;SDS011;65865;51.698;-0.292;2023-03-05T09:22:29;1.83;;;0.60;;
76903;SDS011;65865;51.698;-0.292;2023-03-05T09:24:55;1.50;;;0.40;;
76903;SDS011;65865;51.698;-0.292;2023-03-05T09:27:21;1.33;;;0.52;;
76903;SDS011;65865;51.698;-0.292;2023-03-05T09:29:47;1.15;;;0.40;;
76903;SDS011;65865;51.698;-0.292;2023-03-05T09:32:13;1.02;;;0.52;;
76903;SDS011;65865;51.698;-0.292;2023-03-05T09:34:39;1.10;;;0.55;;
76903;SDS011;65865;51.698;-0.292;2023-03-05T09:37:05;1.48;;;0.68;;
76903;SDS011;65865;51.698;-0.292;2023-03-05T09:39:31;1.70;;;0.52;;
76903;SDS011;65865;51.698;-0.292;2023-03-05T09:44:46;1.80;;;0.60;;
76903;SDS011;65865;51.698;-0.292;2023-03-05T09:47:20;1.67;;;0.50;;
76903;SDS011;65865;51.698;-0.292;2023-03-05T09:49:50;1.55;;;0.63;;
76903;SDS011;65865;51.698;-0.292;2023-03-05T09:52:20;1.75;;;0.65;;
76903;SDS011;65865;51.698;-0.292;2023-03-05T09:54:48;1.77;;;0.68;;
76903;SDS011;65865;51.698;-0.292;2023-03-05T09:57:18;1.90;;;0.93;;
76903;SDS011;65865;51.698;-0.292;2023-03-05T10:02:15;1.50;;;0.70;;
76903;SDS011;65865;51.698;-0.292;2023-03-05T10:12:55;1.88;;;0.65;;
76903;SDS011;65865;51.698;-0.292;2023-03-05T10:18:04;1.35;;;0.57;;
76903;SDS011;65865;51.698;-0.292;2023-03-05T10:20:45;1.48;;;0.70;;
76903;SDS011;65865;51.698;-0.292;2023-03-05T10:23:27;2.08;;;0.80;;
76903;SDS011;65865;51.698;-0.292;2023-03-05T10:28:34;1.85;;;0.90;;
76903;SDS011;65865;51.698;-0.292;2023-03-05T10:33:32;2.28;;;1.20;;
76903;SDS011;65865;51.698;-0.292;2023-03-05T10:36:05;3.28;;;1.17;;
76903;SDS011;65865;51.698;-0.292;2023-03-05T10:38:42;2.65;;;1.00;;
76903;SDS011;65865;51.698;-0.292;2023-03-05T10:44:00;2.00;;;0.73;;
76903;SDS011;65865;51.698;-0.292;2023-03-05T10:46:28;2.22;;;1.20;;
76903;SDS011;65865;51.698;-0.292;2023-03-05T10:48:58;2.33;;;1.10;;
76903;SDS011;65865;51.698;-0.292;2023-03-05T10:59:28;1.83;;;1.02;;
76903;SDS011;65865;51.698;-0.292;2023-03-05T11:02:03;1.88;;;1.00;;
76903;SDS011;65865;51.698;-0.292;2023-03-05T11:04:29;1.88;;;1.13;;
76903;SDS011;65865;51.698;-0.292;2023-03-05T11:07:04;2.92;;;1.25;;
76903;SDS011;65865;51.698;-0.292;2023-03-05T11:09:31;2.50;;;0.88;;
76903;SDS011;65865;51.698;-0.292;2023-03-05T11:17:44;1.90;;;0.80;;
76903;SDS011;65865;51.698;-0.292;2023-03-05T11:25:30;2.67;;;1.35;;
76903;SDS011;65865;51.698;-0.292;2023-03-05T11:27:59;2.83;;;1.33;;
76903;SDS011;65865;51.698;-0.292;2023-03-05T11:30:33;3.22;;;1.42;;
76903;SDS011;65865;51.698;-0.292;2023-03-05T11:35:33;1.98;;;1.10;;
76903;SDS011;65865;51.698;-0.292;2023-03-05T11:38:00;1.80;;;0.82;;
76903;SDS011;65865;51.698;-0.292;2023-03-05T11:40:27;1.77;;;0.73;;
76903;SDS011;65865;51.698;-0.292;2023-03-05T11:42:57;2.42;;;1.15;;
76903;SDS011;65865;51.698;-0.292;2023-03-05T11:45:25;2.25;;;1.00;;
76903;SDS011;65865;51.698;-0.292;2023-03-05T11:50:37;2.33;;;1.40;;
76903;SDS011;65865;51.698;-0.292;2023-03-05T11:55:44;2.40;;;0.93;;
76903;SDS011;65865;51.698;-0.292;2023-03-05T12:00:51;1.90;;;1.05;;
76903;SDS011;65865;51.698;-0.292;2023-03-05T12:03:20;2.22;;;0.80;;
76903;SDS011;65865;51.698;-0.292;2023-03-05T12:05:59;1.55;;;0.80;;
76903;SDS011;65865;51.698;-0.292;2023-03-05T12:08:31;1.70;;;1.13;;
76903;SDS011;65865;51.698;-0.292;2023-03-05T12:10:58;1.50;;;0.80;;
76903;SDS011;65865;51.698;-0.292;2023-03-05T12:23:50;2.42;;;1.40;;
76903;SDS011;65865;51.698;-0.292;2023-03-05T12:26:17;3.20;;;1.10;;
76903;SDS011;65865;51.698;-0.292;2023-03-05T12:31:26;1.75;;;1.02;;
76903;SDS011;65865;51.698;-0.292;2023-03-05T12:33:53;1.85;;;0.80;;
76903;SDS011;65865;51.698;-0.292;2023-03-05T12:38:49;1.92;;;1.00;;
76903;SDS011;65865;51.698;-0.292;2023-03-05T12:46:42;2.30;;;1.25;;
76903;SDS011;65865;51.698;-0.292;2023-03-05T12:51:51;1.65;;;0.80;;
76903;SDS011;65865;51.698;-0.292;2023-03-05T12:56:53;2.28;;;1.00;;
76903;SDS011;65865;51.698;-0.292;2023-03-05T12:59:21;1.73;;;0.80;;
76903;SDS011;65865;51.698;-0.292;2023-03-05T13:04:18;1.95;;;0.95;;
76903;SDS011;65865;51.698;-0.292;2023-03-05T13:06:56;1.85;;;0.82;;
76903;SDS011;65865;51.698;-0.292;2023-03-05T13:09:27;1.88;;;0.93;;
76903;SDS011;65865;51.698;-0.292;2023-03-05T13:11:55;1.75;;;0.95;;
76903;SDS011;65865;51.698;-0.292;2023-03-05T13:14:32;2.50;;;1.27;;
76903;SDS011;65865;51.698;-0.292;2023-03-05T13:16:59;2.25;;;0.85;;
76903;SDS011;65865;51.698;-0.292;2023-03-05T13:19:25;2.35;;;0.63;;
76903;SDS011;65865;51.698;-0.292;2023-03-05T13:22:02;2.67;;;1.15;;
76903;SDS011;65865;51.698;-0.292;2023-03-05T13:24:28;1.92;;;1.00;;
76903;SDS011;65865;51.698;-0.292;2023-03-05T13:26:55;1.75;;;0.60;;
76903;SDS011;65865;51.698;-0.292;2023-03-05T13:29:22;1.98;;;1.00;;
76903;SDS011;65865;51.698;-0.292;2023-03-05T13:36:47;1.40;;;0.70;;
76903;SDS011;65865;51.698;-0.292;2023-03-05T13:44:32;2.22;;;1.17;;
76903;SDS011;65865;51.698;-0.292;2023-03-05T13:47:06;2.17;;;1.00;;
76903;SDS011;65865;51.698;-0.292;2023-03-05T13:49:32;1.75;;;0.63;;
76903;SDS011;65865;51.698;-0.292;2023-03-05T13:51:58;2.10;;;0.85;;
76903;SDS011;65865;51.698;-0.292;2023-03-05T13:54:25;2.70;;;0.95;;
76903;SDS011;65865;51.698;-0.292;2023-03-05T13:56:55;1.45;;;0.70;;
76903;SDS011;65865;51.698;-0.292;2023-03-05T13:59:23;1.83;;;0.82;;
76903;SDS011;65865;51.698;-0.292;2023-03-05T14:01:50;2.22;;;1.02;;
76903;SDS011;65865;51.698;-0.292;2023-03-05T14:04:18;1.48;;;0.80;;
76903;SDS011;65865;51.698;-0.292;2023-03-05T14:06:58;1.83;;;0.75;;
76903;SDS011;65865;51.698;-0.292;2023-03-05T14:09:30;1.48;;;0.60;;
76903;SDS011;65865;51.698;-0.292;2023-03-05T14:14:39;1.50;;;0.90;;
76903;SDS011;65865;51.698;-0.292;2023-03-05T14:22:36;2.33;;;0.80;;
76903;SDS011;65865;51.698;-0.292;2023-03-05T14:25:02;1.98;;;0.80;;
76903;SDS011;65865;51.698;-0.292;2023-03-05T14:27:32;1.95;;;0.90;;
76903;SDS011;65865;51.698;-0.292;2023-03-05T14:30:00;2.05;;;1.08;;
76903;SDS011;65865;51.698;-0.292;2023-03-05T14:32:30;1.77;;;0.85;;
76903;SDS011;65865;51.698;-0.292;2023-03-05T14:34:57;1.42;;;1.02;;
76903;SDS011;65865;51.698;-0.292;2023-03-05T14:37:31;1.65;;;1.08;;
76903;SDS011;65865;51.698;-0.292;2023-03-05T14:39:59;1.92;;;1.13;;
76903;SDS011;65865;51.698;-0.292;2023-03-05T14:45:08;2.20;;;0.95;;
76903;SDS011;65865;51.698;-0.292;2023-03-05T14:47:35;1.27;;;0.60;;
76903;SDS011;65865;51.698;-0.292;2023-03-05T14:50:01;1.90;;;1.13;;
76903;SDS011;65865;51.698;-0.292;2023-03-05T14:52:28;2.15;;;0.90;;
76903;SDS011;65865;51.698;-0.292;2023-03-05T14:54:54;1.75;;;0.93;;
76903;SDS011;65865;51.698;-0.292;2023-03-05T14:57:21;1.65;;;0.98;;
76903;SDS011;65865;51.698;-0.292;2023-03-05T14:59:48;1.55;;;0.93;;
76903;SDS011;65865;51.698;-0.292;2023-03-05T15:02:15;1.27;;;0.70;;
76903;SDS011;65865;51.698;-0.292;2023-03-05T15:04:41;1.42;;;0.63;;
76903;SDS011;65865;51.698;-0.292;2023-03-05T15:07:12;1.55;;;0.82;;
76903;SDS011;65865;51.698;-0.292;2023-03-05T15:09:39;1.63;;;0.85;;
76903;SDS011;65865;51.698;-0.292;2023-03-05T15:12:24;1.13;;;0.70;;
76903;SDS011;65865;51.698;-0.292;2023-03-05T15:14:54;2.13;;;0.80;;
76903;SDS011;65865;51.698;-0.292;2023-03-05T15:17:32;1.85;;;0.60;;
76903;SDS011;65865;51.698;-0.292;2023-03-05T15:19:59;1.95;;;0.55;;
76903;SDS011;65865;51.698;-0.292;2023-03-05T15:22:25;1.60;;;0.70;;
76903;SDS011;65865;51.698;-0.292;2023-03-05T15:24:52;1.60;;;0.68;;
76903;SDS011;65865;51.698;-0.292;2023-03-05T15:27:18;1.30;;;0.70;;
76903;SDS011;65865;51.698;-0.292;2023-03-05T15:29:44;1.40;;;0.50;;
76903;SDS011;65865;51.698;-0.292;2023-03-05T15:32:11;1.60;;;0.80;;
76903;SDS011;65865;51.698;-0.292;2023-03-05T15:34:37;1.85;;;0.82;;
76903;SDS011;65865;51.698;-0.292;2023-03-05T15:37:03;1.85;;;0.95;;
76903;SDS011;65865;51.698;-0.292;2023-03-05T15:39:29;2.47;;;1.27;;
76903;SDS011;65865;51.698;-0.292;2023-03-05T15:41:55;1.98;;;1.08;;
76903;SDS011;65865;51.698;-0.292;2023-03-05T15:44:22;1.38;;;0.60;;
76903;SDS011;65865;51.698;-0.292;2023-03-05T15:46:49;1.42;;;0.73;;
76903;SDS011;65865;51.698;-0.292;2023-03-05T15:49:15;1.65;;;0.60;;
76903;SDS011;65865;51.698;-0.292;2023-03-05T15:51:41;1.17;;;0.60;;
76903;SDS011;65865;51.698;-0.292;2023-03-05T15:54:08;1.95;;;0.68;;
76903;SDS011;65865;51.698;-0.292;2023-03-05T15:56:34;1.75;;;0.95;;
76903;SDS011;65865;51.698;-0.292;2023-03-05T15:59:02;1.95;;;0.60;;
76903;SDS011;65865;51.698;-0.292;2023-03-05T16:01:29;1.58;;;1.02;;
76903;SDS011;65865;51.698;-0.292;2023-03-05T16:03:55;1.52;;;0.80;;
76903;SDS011;65865;51.698;-0.292;2023-03-05T16:06:21;1.52;;;0.88;;
76903;SDS011;65865;51.698;-0.292;2023-03-05T16:08:48;1.70;;;0.73;;
76903;SDS011;65865;51.698;-0.292;2023-03-05T16:11:15;1.88;;;0.80;;
76903;SDS011;65865;51.698;-0.292;2023-03-05T16:13:42;1.50;;;0.60;;
76903;SDS011;65865;51.698;-0.292;2023-03-05T16:16:08;1.45;;;0.68;;
76903;SDS011;65865;51.698;-0.292;2023-03-05T16:18:36;1.17;;;0.70;;
76903;SDS011;65865;51.698;-0.292;2023-03-05T16:21:03;1.40;;;0.60;;